sensor_id;sensor_type;location;lat;lon;timestamp;pressure;altitude;pressure_sealevel;temperature;humidity
50977;BME280;36992;48.200;12.418;2022-12-18T00:02:08;97892.25;;;0.67;53.62
50977;BME280;36992;48.200;12.418;2022-12-18T00:04:34;97885.31;;;0.66;53.43
50977;BME280;36992;48.200;12.418;2022-12-18T00:07:01;97891.44;;;0.66;53.21
50977;BME280;36992;48.200;12.418;2022-12-18T00:09:28;97896.91;;;0.65;53.29
50977;BME280;36992;48.200;12.418;2022-12-18T00:11:55;97898.13;;;0.62;53.70
50977;BME280;36992;48.200;12.418;2022-12-18T00:14:21;97903.66;;;0.61;53.43
50977;BME280;36992;48.200;12.418;2022-12-18T00:16:51;97894.50;;;0.63;53.60
50977;BME280;36992;48.200;12.418;2022-12-18T00:19:17;97891.19;;;0.61;53.63
50977;BME280;36992;48.200;12.418;2022-12-18T00:21:44;97894.69;;;0.62;53.63
50977;BME280;36992;48.200;12.418;2022-12-18T00:24:11;97896.31;;;0.63;53.47
50977;BME280;36992;48.200;12.418;2022-12-18T00:26:39;97890.19;;;0.62;53.43
50977;BME280;36992;48.200;12.418;2022-12-18T00:29:07;97887.53;;;0.62;53.48
50977;BME280;36992;48.200;12.418;2022-12-18T00:31:37;97888.53;;;0.61;53.56
50977;BME280;36992;48.200;12.418;2022-12-18T00:34:05;97879.56;;;0.62;53.86
50977;BME280;36992;48.200;12.418;2022-12-18T00:36:33;97871.84;;;0.61;53.56
50977;BME280;36992;48.200;12.418;2022-12-18T00:39:02;97878.78;;;0.62;53.47
50977;BME280;36992;48.200;12.418;2022-12-18T00:41:29;97879.97;;;0.59;53.47
50977;BME280;36992;48.200;12.418;2022-12-18T00:44:15;97887.75;;;0.61;53.61
50977;BME280;36992;48.200;12.418;2022-12-18T00:46:42;97894.25;;;0.58;53.43
50977;BME280;36992;48.200;12.418;2022-12-18T00:49:10;97899.56;;;0.58;53.68
50977;BME280;36992;48.200;12.418;2022-12-18T00:51:37;97905.06;;;0.57;53.46
50977;BME280;36992;48.200;12.418;2022-12-18T00:54:04;97898.31;;;0.54;53.12
50977;BME280;36992;48.200;12.418;2022-12-18T00:56:30;97915.25;;;0.53;53.25
50977;BME280;36992;48.200;12.418;2022-12-18T00:58:57;97910.13;;;0.51;53.69
50977;BME280;36992;48.200;12.418;2022-12-18T01:01:24;97916.25;;;0.52;53.62
50977;BME280;36992;48.200;12.418;2022-12-18T01:03:50;97916.25;;;0.52;53.76
50977;BME280;36992;48.200;12.418;2022-12-18T01:06:18;97906.47;;;0.52;53.79
50977;BME280;36992;48.200;12.418;2022-12-18T01:08:45;97907.28;;;0.53;53.88
50977;BME280;36992;48.200;12.418;2022-12-18T01:11:14;97907.91;;;0.55;53.85
50977;BME280;36992;48.200;12.418;2022-12-18T01:13:41;97904.44;;;0.55;53.97
50977;BME280;36992;48.200;12.418;2022-12-18T01:16:10;97912.81;;;0.58;53.94
50977;BME280;36992;48.200;12.418;2022-12-18T01:18:37;97915.28;;;0.60;53.76
50977;BME280;36992;48.200;12.418;2022-12-18T01:21:06;97921.19;;;0.62;53.86
50977;BME280;36992;48.200;12.418;2022-12-18T01:23:34;97914.88;;;0.63;53.79
50977;BME280;36992;48.200;12.418;2022-12-18T01:26:04;97914.69;;;0.64;53.82
50977;BME280;36992;48.200;12.418;2022-12-18T01:28:32;97914.03;;;0.62;53.69
50977;BME280;36992;48.200;12.418;2022-12-18T01:31:12;97917.16;;;0.66;53.71
50977;BME280;36992;48.200;12.418;2022-12-18T01:33:39;97916.69;;;0.62;53.75
50977;BME280;36992;48.200;12.418;2022-12-18T01:36:06;97920.38;;;0.61;53.62
50977;BME280;36992;48.200;12.418;2022-12-18T01:38:34;97921.00;;;0.63;53.78
50977;BME280;36992;48.200;12.418;2022-12-18T01:41:02;97916.09;;;0.60;53.37
50977;BME280;36992;48.200;12.418;2022-12-18T01:43:46;97925.28;;;0.64;53.63
50977;BME280;36992;48.200;12.418;2022-12-18T01:46:13;97925.69;;;0.61;53.58
50977;BME280;36992;48.200;12.418;2022-12-18T01:48:40;97929.34;;;0.60;53.74
50977;BME280;36992;48.200;12.418;2022-12-18T01:51:08;97929.97;;;0.62;53.68
50977;BME280;36992;48.200;12.418;2022-12-18T01:53:39;97934.28;;;0.63;53.66
50977;BME280;36992;48.200;12.418;2022-12-18T01:56:07;97929.34;;;0.60;53.70
50977;BME280;36992;48.200;12.418;2022-12-18T01:58:41;97920.38;;;0.61;53.55
50977;BME280;36992;48.200;12.418;2022-12-18T02:01:10;97933.03;;;0.59;53.62
50977;BME280;36992;48.200;12.418;2022-12-18T02:03:40;97935.06;;;0.57;53.65
50977;BME280;36992;48.200;12.418;2022-12-18T02:06:12;97936.69;;;0.58;53.64
50977;BME280;36992;48.200;12.418;2022-12-18T02:08:48;97947.13;;;0.60;53.85
50977;BME280;36992;48.200;12.418;2022-12-18T02:11:24;97941.59;;;0.61;53.94
50977;BME280;36992;48.200;12.418;2022-12-18T02:14:02;97939.56;;;0.63;53.90
50977;BME280;36992;48.200;12.418;2022-12-18T02:16:38;97937.53;;;0.65;53.82
50977;BME280;36992;48.200;12.418;2022-12-18T02:19:18;97938.78;;;0.70;53.89
50977;BME280;36992;48.200;12.418;2022-12-18T02:21:54;97936.75;;;0.72;53.72
50977;BME280;36992;48.200;12.418;2022-12-18T02:24:30;97945.31;;;0.74;53.94
50977;BME280;36992;48.200;12.418;2022-12-18T02:27:03;97946.75;;;0.76;54.00
50977;BME280;36992;48.200;12.418;2022-12-18T02:29:35;97950.25;;;0.77;53.87
50977;BME280;36992;48.200;12.418;2022-12-18T02:32:05;97954.53;;;0.78;53.54
50977;BME280;36992;48.200;12.418;2022-12-18T02:34:34;97957.78;;;0.80;53.78
50977;BME280;36992;48.200;12.418;2022-12-18T02:37:05;97966.38;;;0.82;53.57
50977;BME280;36992;48.200;12.418;2022-12-18T02:39:34;97963.72;;;0.82;53.41
50977;BME280;36992;48.200;12.418;2022-12-18T02:42:03;97963.72;;;0.82;53.69
50977;BME280;36992;48.200;12.418;2022-12-18T02:44:33;97955.13;;;0.80;53.44
50977;BME280;36992;48.200;12.418;2022-12-18T02:47:00;97959.41;;;0.81;53.30
50977;BME280;36992;48.200;12.418;2022-12-18T02:49:33;97961.69;;;0.84;53.42
50977;BME280;36992;48.200;12.418;2022-12-18T02:52:05;97947.81;;;0.82;53.28
50977;BME280;36992;48.200;12.418;2022-12-18T02:57:26;97950.47;;;0.82;53.06
50977;BME280;36992;48.200;12.418;2022-12-18T02:59:58;97948.19;;;0.79;53.37
50977;BME280;36992;48.200;12.418;2022-12-18T03:02:35;97947.59;;;0.77;53.27
50977;BME280;36992;48.200;12.418;2022-12-18T03:05:09;97952.47;;;0.73;53.06
50977;BME280;36992;48.200;12.418;2022-12-18T03:07:40;97951.03;;;0.71;53.00
50977;BME280;36992;48.200;12.418;2022-12-18T03:10:12;97948.75;;;0.67;52.83
50977;BME280;36992;48.200;12.418;2022-12-18T03:12:43;97954.06;;;0.67;52.89
50977;BME280;36992;48.200;12.418;2022-12-18T03:15:16;97955.09;;;0.66;53.21
50977;BME280;36992;48.200;12.418;2022-12-18T03:17:49;97952.63;;;0.65;52.73
50977;BME280;36992;48.200;12.418;2022-12-18T03:20:19;97957.31;;;0.63;52.96
50977;BME280;36992;48.200;12.418;2022-12-18T03:22:51;97957.50;;;0.61;52.73
50977;BME280;36992;48.200;12.418;2022-12-18T03:25:20;97950.16;;;0.57;52.88
50977;BME280;36992;48.200;12.418;2022-12-18T03:27:54;97956.28;;;0.57;52.92
50977;BME280;36992;48.200;12.418;2022-12-18T03:30:23;97955.84;;;0.53;53.20
50977;BME280;36992;48.200;12.418;2022-12-18T03:32:55;97955.84;;;0.53;52.80
50977;BME280;36992;48.200;12.418;2022-12-18T03:35:26;97948.09;;;0.52;53.14
50977;BME280;36992;48.200;12.418;2022-12-18T03:37:55;97943.16;;;0.49;52.88
50977;BME280;36992;48.200;12.418;2022-12-18T03:40:24;97943.16;;;0.49;53.05
50977;BME280;36992;48.200;12.418;2022-12-18T03:42:58;97944.19;;;0.48;52.80
50977;BME280;36992;48.200;12.418;2022-12-18T03:45:33;97944.59;;;0.45;53.07
50977;BME280;36992;48.200;12.418;2022-12-18T03:48:06;97941.50;;;0.41;53.27
50977;BME280;36992;48.200;12.418;2022-12-18T03:50:39;97938.03;;;0.40;52.89
50977;BME280;36992;48.200;12.418;2022-12-18T03:53:17;97944.34;;;0.39;52.87
50977;BME280;36992;48.200;12.418;2022-12-18T03:55:45;97945.56;;;0.37;53.09
50977;BME280;36992;48.200;12.418;2022-12-18T03:58:18;97955.34;;;0.36;53.29
50977;BME280;36992;48.200;12.418;2022-12-18T04:00:47;97956.34;;;0.35;53.52
50977;BME280;36992;48.200;12.418;2022-12-18T04:03:17;97959.00;;;0.35;53.45
50977;BME280;36992;48.200;12.418;2022-12-18T04:05:47;97948.41;;;0.35;53.30
50977;BME280;36992;48.200;12.418;2022-12-18T04:08:16;97946.78;;;0.34;53.09
50977;BME280;36992;48.200;12.418;2022-12-18T04:10:42;97960.84;;;0.35;53.09
50977;BME280;36992;48.200;12.418;2022-12-18T04:13:09;97956.53;;;0.34;52.93
50977;BME280;36992;48.200;12.418;2022-12-18T04:15:38;97951.66;;;0.37;53.03
50977;BME280;36992;48.200;12.418;2022-12-18T04:18:05;97952.06;;;0.34;52.33
50977;BME280;36992;48.200;12.418;2022-12-18T04:20:31;97953.88;;;0.34;52.74
50977;BME280;36992;48.200;12.418;2022-12-18T04:22:58;97959.41;;;0.32;52.89
50977;BME280;36992;48.200;12.418;2022-12-18T04:25:24;97957.75;;;0.31;52.38
50977;BME280;36992;48.200;12.418;2022-12-18T04:27:51;97962.25;;;0.31;52.92
50977;BME280;36992;48.200;12.418;2022-12-18T04:30:17;97958.75;;;0.30;53.17
50977;BME280;36992;48.200;12.418;2022-12-18T04:32:45;97964.72;;;0.32;53.31
50977;BME280;36992;48.200;12.418;2022-12-18T04:35:12;97964.91;;;0.31;53.42
50977;BME280;36992;48.200;12.418;2022-12-18T04:37:38;97961.84;;;0.34;52.50
50977;BME280;36992;48.200;12.418;2022-12-18T04:40:06;97950.44;;;0.33;52.67
50977;BME280;36992;48.200;12.418;2022-12-18T04:42:32;97958.38;;;0.33;52.60
50977;BME280;36992;48.200;12.418;2022-12-18T04:44:59;97957.75;;;0.31;52.43
50977;BME280;36992;48.200;12.418;2022-12-18T04:47:25;97960.63;;;0.30;52.71
50977;BME280;36992;48.200;12.418;2022-12-18T04:49:53;97964.91;;;0.31;52.78
50977;BME280;36992;48.200;12.418;2022-12-18T04:52:20;97974.06;;;0.28;53.02
50977;BME280;36992;48.200;12.418;2022-12-18T04:54:46;97981.41;;;0.26;52.63
50977;BME280;36992;48.200;12.418;2022-12-18T04:57:13;97985.03;;;0.25;52.37
50977;BME280;36992;48.200;12.418;2022-12-18T04:59:39;97987.06;;;0.23;52.38
50977;BME280;36992;48.200;12.418;2022-12-18T05:02:06;97966.88;;;0.22;53.00
50977;BME280;36992;48.200;12.418;2022-12-18T05:04:32;97967.06;;;0.20;52.59
50977;BME280;36992;48.200;12.418;2022-12-18T05:07:00;97969.53;;;0.22;52.59
50977;BME280;36992;48.200;12.418;2022-12-18T05:09:27;97969.72;;;0.20;52.91
50977;BME280;36992;48.200;12.418;2022-12-18T05:11:53;97973.19;;;0.21;52.84
50977;BME280;36992;48.200;12.418;2022-12-18T05:14:20;97978.50;;;0.21;52.90
50977;BME280;36992;48.200;12.418;2022-12-18T05:16:46;97995.19;;;0.21;52.94
50977;BME280;36992;48.200;12.418;2022-12-18T05:19:13;98017.25;;;0.22;53.27
50977;BME280;36992;48.200;12.418;2022-12-18T05:21:40;98019.88;;;0.22;52.79
50977;BME280;36992;48.200;12.418;2022-12-18T05:24:07;98016.84;;;0.25;53.13
50977;BME280;36992;48.200;12.418;2022-12-18T05:26:34;98010.72;;;0.24;53.10
50977;BME280;36992;48.200;12.418;2022-12-18T05:29:00;98014.00;;;0.26;52.49
50977;BME280;36992;48.200;12.418;2022-12-18T05:31:27;98009.53;;;0.27;52.90
50977;BME280;36992;48.200;12.418;2022-12-18T05:33:53;98000.56;;;0.28;52.80
50977;BME280;36992;48.200;12.418;2022-12-18T05:36:20;98008.31;;;0.30;52.31
50977;BME280;36992;48.200;12.418;2022-12-18T05:38:46;98012.19;;;0.27;52.81
50977;BME280;36992;48.200;12.418;2022-12-18T05:41:14;98013.63;;;0.30;51.76
50977;BME280;36992;48.200;12.418;2022-12-18T05:43:41;98016.66;;;0.26;51.62
50977;BME280;36992;48.200;12.418;2022-12-18T05:46:10;98023.81;;;0.26;51.90
50977;BME280;36992;48.200;12.418;2022-12-18T05:48:38;98022.53;;;0.22;51.66
50977;BME280;36992;48.200;12.418;2022-12-18T05:51:06;98022.53;;;0.22;51.94
50977;BME280;36992;48.200;12.418;2022-12-18T05:53:33;98010.69;;;0.18;51.74
50977;BME280;36992;48.200;12.418;2022-12-18T05:56:01;98017.00;;;0.17;51.66
50977;BME280;36992;48.200;12.418;2022-12-18T05:58:29;98018.19;;;0.14;51.76
50977;BME280;36992;48.200;12.418;2022-12-18T06:00:57;98022.03;;;0.11;52.22
50977;BME280;36992;48.200;12.418;2022-12-18T06:03:24;98025.72;;;0.10;52.19
50977;BME280;36992;48.200;12.418;2022-12-18T06:05:50;98022.25;;;0.10;52.24
50977;BME280;36992;48.200;12.418;2022-12-18T06:08:17;98023.25;;;0.09;51.84
50977;BME280;36992;48.200;12.418;2022-12-18T06:10:49;98028.53;;;0.09;51.41
50977;BME280;36992;48.200;12.418;2022-12-18T06:13:16;98031.78;;;0.04;52.32
50977;BME280;36992;48.200;12.418;2022-12-18T06:15:44;98043.22;;;0.05;52.38
50977;BME280;36992;48.200;12.418;2022-12-18T06:18:10;98051.34;;;0.03;52.99
50977;BME280;36992;48.200;12.418;2022-12-18T06:20:37;98051.34;;;0.03;52.32
50977;BME280;36992;48.200;12.418;2022-12-18T06:23:04;98044.41;;;0.02;52.66
50977;BME280;36992;48.200;12.418;2022-12-18T06:25:31;98047.84;;;0.03;52.58
50977;BME280;36992;48.200;12.418;2022-12-18T06:27:58;98046.03;;;0.03;52.78
50977;BME280;36992;48.200;12.418;2022-12-18T06:30:25;98045.03;;;0.04;52.48
50977;BME280;36992;48.200;12.418;2022-12-18T06:32:52;98046.66;;;0.05;52.45
50977;BME280;36992;48.200;12.418;2022-12-18T06:35:19;98042.38;;;0.04;52.50
50977;BME280;36992;48.200;12.418;2022-12-18T06:37:45;98039.72;;;0.04;52.61
50977;BME280;36992;48.200;12.418;2022-12-18T06:40:12;98038.09;;;0.03;52.72
50977;BME280;36992;48.200;12.418;2022-12-18T06:42:38;98039.09;;;0.02;52.78
50977;BME280;36992;48.200;12.418;2022-12-18T06:45:06;98051.34;;;0.03;52.85
50977;BME280;36992;48.200;12.418;2022-12-18T06:47:32;98042.38;;;0.04;52.65
50977;BME280;36992;48.200;12.418;2022-12-18T06:50:00;98049.31;;;0.05;52.67
50977;BME280;36992;48.200;12.418;2022-12-18T06:52:27;98049.31;;;0.05;52.93
50977;BME280;36992;48.200;12.418;2022-12-18T06:54:53;98050.94;;;0.06;52.92
50977;BME280;36992;48.200;12.418;2022-12-18T06:57:20;98051.59;;;0.08;52.82
50977;BME280;36992;48.200;12.418;2022-12-18T06:59:46;98057.50;;;0.10;53.00
50977;BME280;36992;48.200;12.418;2022-12-18T07:02:13;98051.19;;;0.11;52.77
50977;BME280;36992;48.200;12.418;2022-12-18T07:04:39;98058.13;;;0.12;52.95
50977;BME280;36992;48.200;12.418;2022-12-18T07:07:07;98059.41;;;0.17;52.92
50977;BME280;36992;48.200;12.418;2022-12-18T07:09:34;98070.00;;;0.17;53.02
50977;BME280;36992;48.200;12.418;2022-12-18T07:12:00;98067.97;;;0.19;52.56
50977;BME280;36992;48.200;12.418;2022-12-18T07:14:27;98070.63;;;0.19;52.55
50977;BME280;36992;48.200;12.418;2022-12-18T07:16:53;98071.44;;;0.19;52.61
50977;BME280;36992;48.200;12.418;2022-12-18T07:19:23;98082.47;;;0.23;52.90
50977;BME280;36992;48.200;12.418;2022-12-18T07:21:49;98088.81;;;0.22;52.67
50977;BME280;36992;48.200;12.418;2022-12-18T07:24:17;98086.78;;;0.24;52.93
50977;BME280;36992;48.200;12.418;2022-12-18T07:26:45;98085.75;;;0.25;53.04
50977;BME280;36992;48.200;12.418;2022-12-18T07:29:11;98086.59;;;0.25;53.00
50977;BME280;36992;48.200;12.418;2022-12-18T07:31:38;98087.41;;;0.26;52.91
50977;BME280;36992;48.200;12.418;2022-12-18T07:34:05;98097.81;;;0.28;52.93
50977;BME280;36992;48.200;12.418;2022-12-18T07:36:31;98089.06;;;0.27;52.79
50977;BME280;36992;48.200;12.418;2022-12-18T07:38:58;98088.66;;;0.30;53.05
50977;BME280;36992;48.200;12.418;2022-12-18T07:41:26;98089.94;;;0.34;52.71
50977;BME280;36992;48.200;12.418;2022-12-18T07:43:52;98086.44;;;0.34;52.83
50977;BME280;36992;48.200;12.418;2022-12-18T07:46:19;98092.56;;;0.34;53.04
50977;BME280;36992;48.200;12.418;2022-12-18T07:48:46;98093.19;;;0.36;52.95
50977;BME280;36992;48.200;12.418;2022-12-18T07:51:13;98093.19;;;0.36;52.82
50977;BME280;36992;48.200;12.418;2022-12-18T07:53:40;98095.66;;;0.38;52.97
50977;BME280;36992;48.200;12.418;2022-12-18T07:56:09;98085.66;;;0.40;52.56
50977;BME280;36992;48.200;12.418;2022-12-18T07:58:37;98086.69;;;0.39;52.80
50977;BME280;36992;48.200;12.418;2022-12-18T08:01:05;98097.47;;;0.37;52.63
50977;BME280;36992;48.200;12.418;2022-12-18T08:03:32;98094.22;;;0.35;52.74
50977;BME280;36992;48.200;12.418;2022-12-18T08:06:00;98098.91;;;0.33;52.99
50977;BME280;36992;48.200;12.418;2022-12-18T08:08:27;98095.59;;;0.31;52.90
50977;BME280;36992;48.200;12.418;2022-12-18T08:10:53;98099.25;;;0.30;53.13
50977;BME280;36992;48.200;12.418;2022-12-18T08:13:20;98097.44;;;0.31;52.72
50977;BME280;36992;48.200;12.418;2022-12-18T08:15:55;98091.75;;;0.34;53.02
50977;BME280;36992;48.200;12.418;2022-12-18T08:18:22;98087.47;;;0.33;53.03
50977;BME280;36992;48.200;12.418;2022-12-18T08:20:48;98089.31;;;0.32;53.15
50977;BME280;36992;48.200;12.418;2022-12-18T08:23:15;98087.28;;;0.34;53.31
50977;BME280;36992;48.200;12.418;2022-12-18T08:25:41;98084.44;;;0.36;53.39
50977;BME280;36992;48.200;12.418;2022-12-18T08:28:08;98074.44;;;0.38;53.51
50977;BME280;36992;48.200;12.418;2022-12-18T08:30:35;98079.38;;;0.41;53.23
50977;BME280;36992;48.200;12.418;2022-12-18T08:33:03;98082.25;;;0.46;52.98
50977;BME280;36992;48.200;12.418;2022-12-18T08:35:29;98085.13;;;0.45;53.00
50977;BME280;36992;48.200;12.418;2022-12-18T08:37:56;98084.91;;;0.46;53.27
50977;BME280;36992;48.200;12.418;2022-12-18T08:40:22;98091.66;;;0.49;52.92
50977;BME280;36992;48.200;12.418;2022-12-18T08:42:49;98090.84;;;0.48;52.95
50977;BME280;36992;48.200;12.418;2022-12-18T08:45:33;98093.28;;;0.50;53.01
50977;BME280;36992;48.200;12.418;2022-12-18T08:48:00;98092.31;;;0.51;52.80
50977;BME280;36992;48.200;12.418;2022-12-18T08:50:28;98100.25;;;0.51;52.88
50977;BME280;36992;48.200;12.418;2022-12-18T08:52:54;98114.50;;;0.50;52.84
50977;BME280;36992;48.200;12.418;2022-12-18T08:55:21;98116.53;;;0.48;52.54
50977;BME280;36992;48.200;12.418;2022-12-18T08:57:48;98121.84;;;0.48;52.57
50977;BME280;36992;48.200;12.418;2022-12-18T09:00:15;98120.22;;;0.47;52.50
50977;BME280;36992;48.200;12.418;2022-12-18T09:02:41;98118.94;;;0.43;52.26
50977;BME280;36992;48.200;12.418;2022-12-18T09:05:08;98125.25;;;0.42;52.48
50977;BME280;36992;48.200;12.418;2022-12-18T09:07:36;98134.84;;;0.43;52.39
50977;BME280;36992;48.200;12.418;2022-12-18T09:10:03;98138.91;;;0.38;52.30
50977;BME280;36992;48.200;12.418;2022-12-18T09:12:30;98138.25;;;0.36;52.75
50977;BME280;36992;48.200;12.418;2022-12-18T09:14:57;98144.59;;;0.35;52.23
50977;BME280;36992;48.200;12.418;2022-12-18T09:17:23;98151.53;;;0.36;52.59
50977;BME280;36992;48.200;12.418;2022-12-18T09:19:50;98149.69;;;0.37;52.60
50977;BME280;36992;48.200;12.418;2022-12-18T09:22:17;98148.88;;;0.36;52.43
50977;BME280;36992;48.200;12.418;2022-12-18T09:24:45;98147.03;;;0.37;52.35
50977;BME280;36992;48.200;12.418;2022-12-18T09:27:11;98140.91;;;0.36;52.38
50977;BME280;36992;48.200;12.418;2022-12-18T09:29:38;98140.91;;;0.36;52.47
50977;BME280;36992;48.200;12.418;2022-12-18T09:32:05;98135.59;;;0.36;52.37
50977;BME280;36992;48.200;12.418;2022-12-18T09:34:31;98131.50;;;0.34;52.31
50977;BME280;36992;48.200;12.418;2022-12-18T09:36:58;98137.63;;;0.34;52.17
50977;BME280;36992;48.200;12.418;2022-12-18T09:39:24;98126.19;;;0.34;52.38
50977;BME280;36992;48.200;12.418;2022-12-18T09:41:54;98126.63;;;0.37;52.75
50977;BME280;36992;48.200;12.418;2022-12-18T09:44:24;98121.34;;;0.37;52.70
50977;BME280;36992;48.200;12.418;2022-12-18T09:46:57;98114.03;;;0.39;52.59
50977;BME280;36992;48.200;12.418;2022-12-18T09:49:29;98112.00;;;0.42;52.91
50977;BME280;36992;48.200;12.418;2022-12-18T09:52:02;98112.63;;;0.44;52.74
50977;BME280;36992;48.200;12.418;2022-12-18T09:54:33;98118.56;;;0.46;52.43
50977;BME280;36992;48.200;12.418;2022-12-18T09:57:02;98119.38;;;0.46;52.73
50977;BME280;36992;48.200;12.418;2022-12-18T09:59:32;98114.72;;;0.48;52.60
50977;BME280;36992;48.200;12.418;2022-12-18T10:02:14;98113.50;;;0.51;52.80
50977;BME280;36992;48.200;12.418;2022-12-18T10:04:42;98111.06;;;0.49;52.68
50977;BME280;36992;48.200;12.418;2022-12-18T10:07:13;98101.06;;;0.51;52.91
50977;BME280;36992;48.200;12.418;2022-12-18T10:09:48;98094.75;;;0.52;52.85
50977;BME280;36992;48.200;12.418;2022-12-18T10:12:23;98087.22;;;0.56;52.79
50977;BME280;36992;48.200;12.418;2022-12-18T10:14:58;98080.09;;;0.57;52.71
50977;BME280;36992;48.200;12.418;2022-12-18T10:17:31;98089.69;;;0.58;52.83
50977;BME280;36992;48.200;12.418;2022-12-18T10:20:04;98090.50;;;0.58;52.81
50977;BME280;36992;48.200;12.418;2022-12-18T10:22:42;98082.16;;;0.61;52.61
50977;BME280;36992;48.200;12.418;2022-12-18T10:25:19;98086.44;;;0.62;52.59
50977;BME280;36992;48.200;12.418;2022-12-18T10:27:52;98077.50;;;0.63;52.70
50977;BME280;36992;48.200;12.418;2022-12-18T10:30:21;98074.84;;;0.63;52.56
50977;BME280;36992;48.200;12.418;2022-12-18T10:32:48;98079.31;;;0.63;52.50
50977;BME280;36992;48.200;12.418;2022-12-18T10:35:19;98082.41;;;0.66;52.27
50977;BME280;36992;48.200;12.418;2022-12-18T10:38:00;98078.53;;;0.69;52.48
50977;BME280;36992;48.200;12.418;2022-12-18T10:40:27;98080.75;;;0.65;52.76
50977;BME280;36992;48.200;12.418;2022-12-18T10:43:05;98082.03;;;0.70;52.56
50977;BME280;36992;48.200;12.418;2022-12-18T10:45:32;98071.00;;;0.66;52.73
50977;BME280;36992;48.200;12.418;2022-12-18T10:47:59;98073.41;;;0.67;52.53
50977;BME280;36992;48.200;12.418;2022-12-18T10:50:29;98074.69;;;0.72;52.43
50977;BME280;36992;48.200;12.418;2022-12-18T10:52:58;98073.66;;;0.73;52.68
50977;BME280;36992;48.200;12.418;2022-12-18T10:55:29;98071.84;;;0.73;52.69
50977;BME280;36992;48.200;12.418;2022-12-18T10:58:15;98078.38;;;0.77;52.42
50977;BME280;36992;48.200;12.418;2022-12-18T11:00:43;98077.94;;;0.74;52.20
50977;BME280;36992;48.200;12.418;2022-12-18T11:03:29;98073.06;;;0.77;52.54
50977;BME280;36992;48.200;12.418;2022-12-18T11:06:08;98065.13;;;0.77;52.47
50977;BME280;36992;48.200;12.418;2022-12-18T11:08:35;98065.72;;;0.73;52.19
50977;BME280;36992;48.200;12.418;2022-12-18T11:11:02;98051.41;;;0.74;52.52
50977;BME280;36992;48.200;12.418;2022-12-18T11:13:31;98061.00;;;0.75;52.45
50977;BME280;36992;48.200;12.418;2022-12-18T11:15:59;98055.94;;;0.73;52.33
50977;BME280;36992;48.200;12.418;2022-12-18T11:18:28;98055.72;;;0.75;52.46
50977;BME280;36992;48.200;12.418;2022-12-18T11:20:57;98054.91;;;0.74;52.56
50977;BME280;36992;48.200;12.418;2022-12-18T11:23:26;98054.06;;;0.74;52.53
50977;BME280;36992;48.200;12.418;2022-12-18T11:25:55;98047.97;;;0.73;52.55
50977;BME280;36992;48.200;12.418;2022-12-18T11:28:28;98056.53;;;0.75;52.66
50977;BME280;36992;48.200;12.418;2022-12-18T11:31:20;98049.00;;;0.79;52.87
50977;BME280;36992;48.200;12.418;2022-12-18T11:33:52;98046.75;;;0.76;52.68
50977;BME280;36992;48.200;12.418;2022-12-18T11:36:22;98060.03;;;0.76;52.76
50977;BME280;36992;48.200;12.418;2022-12-18T11:38:52;98051.84;;;0.77;52.64
50977;BME280;36992;48.200;12.418;2022-12-18T11:41:24;98053.50;;;0.78;52.43
50977;BME280;36992;48.200;12.418;2022-12-18T11:44:15;98049.84;;;0.79;52.76
50977;BME280;36992;48.200;12.418;2022-12-18T11:46:49;98051.47;;;0.80;52.70
50977;BME280;36992;48.200;12.418;2022-12-18T11:49:20;98055.56;;;0.83;52.49
50977;BME280;36992;48.200;12.418;2022-12-18T11:51:51;98060.88;;;0.83;52.76
50977;BME280;36992;48.200;12.418;2022-12-18T11:54:20;98058.03;;;0.85;52.53
50977;BME280;36992;48.200;12.418;2022-12-18T11:56:50;98059.44;;;0.87;52.52
50977;BME280;36992;48.200;12.418;2022-12-18T11:59:27;98058.06;;;0.91;52.40
50977;BME280;36992;48.200;12.418;2022-12-18T12:02:03;98064.19;;;0.92;52.12
50977;BME280;36992;48.200;12.418;2022-12-18T12:05:05;98065.63;;;0.94;52.32
50977;BME280;36992;48.200;12.418;2022-12-18T12:07:45;98065.22;;;0.91;52.18
50977;BME280;36992;48.200;12.418;2022-12-18T12:10:25;98064.19;;;0.92;52.34
50977;BME280;36992;48.200;12.418;2022-12-18T12:13:03;98061.31;;;0.93;52.38
50977;BME280;36992;48.200;12.418;2022-12-18T12:15:42;98068.28;;;0.94;52.53
50977;BME280;36992;48.200;12.418;2022-12-18T12:18:23;98057.28;;;0.98;52.71
50977;BME280;36992;48.200;12.418;2022-12-18T12:21:01;98057.06;;;0.99;52.66
50977;BME280;36992;48.200;12.418;2022-12-18T12:23:38;98058.34;;;1.03;52.55
50977;BME280;36992;48.200;12.418;2022-12-18T12:26:10;98046.88;;;1.03;52.51
50977;BME280;36992;48.200;12.418;2022-12-18T12:28:59;98052.44;;;1.08;52.28
50977;BME280;36992;48.200;12.418;2022-12-18T12:31:37;98042.59;;;1.08;51.93
50977;BME280;36992;48.200;12.418;2022-12-18T12:34:16;98038.13;;;1.09;52.07
50977;BME280;36992;48.200;12.418;2022-12-18T12:36:57;98038.75;;;1.11;52.05
50977;BME280;36992;48.200;12.418;2022-12-18T12:39:31;98030.78;;;1.11;51.99
50977;BME280;36992;48.200;12.418;2022-12-18T12:41:59;98035.47;;;1.09;51.99
50977;BME280;36992;48.200;12.418;2022-12-18T12:44:48;98032.41;;;1.12;51.88
50977;BME280;36992;48.200;12.418;2022-12-18T12:47:20;98028.78;;;1.13;52.07
50977;BME280;36992;48.200;12.418;2022-12-18T12:49:50;98021.00;;;1.12;51.95
50977;BME280;36992;48.200;12.418;2022-12-18T12:52:22;98029.56;;;1.14;52.04
50977;BME280;36992;48.200;12.418;2022-12-18T12:54:54;98020.16;;;1.11;52.10
50977;BME280;36992;48.200;12.418;2022-12-18T12:57:24;98028.97;;;1.12;52.14
50977;BME280;36992;48.200;12.418;2022-12-18T12:59:59;98023.47;;;1.13;52.08
50977;BME280;36992;48.200;12.418;2022-12-18T13:02:31;98026.13;;;1.13;51.66
50977;BME280;36992;48.200;12.418;2022-12-18T13:05:07;98018.16;;;1.13;51.79
50977;BME280;36992;48.200;12.418;2022-12-18T13:07:39;98018.94;;;1.14;51.78
50977;BME280;36992;48.200;12.418;2022-12-18T13:10:13;98018.16;;;1.13;51.91
50977;BME280;36992;48.200;12.418;2022-12-18T13:12:51;98028.78;;;1.13;51.91
50977;BME280;36992;48.200;12.418;2022-12-18T13:15:28;98018.53;;;1.10;51.80
50977;BME280;36992;48.200;12.418;2022-12-18T13:18:19;98021.78;;;1.12;52.02